createdAt,value
2018-01-13T00:01:51.811Z,102224.73
2018-01-13T00:04:19.214Z,102220.36
2018-01-13T00:06:46.607Z,102223.86
2018-01-13T00:09:14.014Z,102227.41
2018-01-13T00:11:41.408Z,102223.42
2018-01-13T00:14:08.803Z,102226.00
2018-01-13T00:16:36.223Z,102226.48
2018-01-13T00:19:03.633Z,102225.61
2018-01-13T00:21:31.030Z,102225.12
2018-01-13T00:23:58.446Z,102222.58
2018-01-13T00:26:25.837Z,102231.28
2018-01-13T00:28:53.242Z,102225.59
2018-01-13T00:31:20.644Z,102224.23
2018-01-13T00:33:48.063Z,102227.27
2018-01-13T00:36:15.489Z,102224.66
2018-01-13T00:38:42.894Z,102227.30
2018-01-13T00:41:10.317Z,102225.16
2018-01-13T00:43:37.714Z,102223.45
2018-01-13T00:46:05.123Z,102230.03
2018-01-13T00:48:32.514Z,102223.05
2018-01-13T00:50:59.928Z,102223.03
2018-01-13T00:53:27.319Z,102218.66
2018-01-13T00:55:54.827Z,102222.19
2018-01-13T00:58:22.217Z,102216.39
2018-01-13T01:00:49.639Z,102215.14
2018-01-13T01:03:17.039Z,102213.85
2018-01-13T01:05:44.556Z,102218.62
2018-01-13T01:08:11.952Z,102211.70
2018-01-13T01:10:39.350Z,102217.34
2018-01-13T01:13:06.791Z,102212.52
2018-01-13T01:15:34.181Z,102210.77
2018-01-13T01:18:01.570Z,102206.42
2018-01-13T01:20:28.995Z,102203.73
2018-01-13T01:22:56.379Z,102208.55
2018-01-13T01:25:23.903Z,102200.73
2018-01-13T01:27:51.294Z,102205.95
2018-01-13T01:30:18.704Z,102199.80
2018-01-13T01:32:46.106Z,102199.36
2018-01-13T01:35:13.560Z,102205.12
2018-01-13T01:37:40.907Z,102202.86
2018-01-13T01:40:08.300Z,102204.11
2018-01-13T01:42:35.722Z,102212.00
2018-01-13T01:45:03.130Z,102203.80
2018-01-13T01:47:30.591Z,102205.55
2018-01-13T01:49:58.008Z,102209.52
2018-01-13T01:52:25.415Z,102209.05
2018-01-13T01:54:52.794Z,102208.16
2018-01-13T01:57:20.306Z,102209.98
2018-01-13T01:59:47.707Z,102208.19
2018-01-13T02:02:15.106Z,102206.07
2018-01-13T02:04:42.503Z,102210.39
2018-01-13T02:07:09.909Z,102209.52
2018-01-13T02:09:37.326Z,102206.48
2018-01-13T02:12:04.736Z,102203.34
2018-01-13T02:14:32.131Z,102202.86
2018-01-13T02:16:59.537Z,102203.30
2018-01-13T02:19:26.926Z,102204.21
2018-01-13T02:21:54.330Z,102199.97
2018-01-13T02:24:21.713Z,102201.70
2018-01-13T02:26:49.141Z,102203.05
2018-01-13T02:29:16.569Z,102203.91
2018-01-13T02:31:43.970Z,102204.70
2018-01-13T02:34:11.366Z,102207.30
2018-01-13T02:36:38.760Z,102207.31
2018-01-13T02:39:06.170Z,102203.77
2018-01-13T02:41:33.566Z,102204.20
2018-01-13T02:44:01.038Z,102201.69
2018-01-13T02:46:28.449Z,102201.20
2018-01-13T02:48:55.846Z,102203.80
2018-01-13T02:51:23.237Z,102197.23
2018-01-13T02:53:50.642Z,102198.98
2018-01-13T02:56:18.058Z,102195.39
2018-01-13T02:58:45.462Z,102201.46
2018-01-13T03:01:12.871Z,102201.02
2018-01-13T03:03:40.277Z,102205.00
2018-01-13T03:06:07.669Z,102203.67
2018-01-13T03:08:35.074Z,102202.03
2018-01-13T03:11:02.471Z,102200.66
2018-01-13T03:13:29.892Z,102195.03
2018-01-13T03:15:57.282Z,102197.14
2018-01-13T03:18:24.700Z,102199.25
2018-01-13T03:20:52.113Z,102204.38
2018-01-13T03:23:19.518Z,102197.20
2018-01-13T03:25:46.922Z,102206.42
2018-01-13T03:28:14.313Z,102199.43
2018-01-13T03:30:41.723Z,102195.94
2018-01-13T03:33:09.138Z,102190.66
2018-01-13T03:35:36.566Z,102197.62
2018-01-13T03:38:03.958Z,102194.04
2018-01-13T03:40:31.422Z,102198.80
2018-01-13T03:42:58.814Z,102197.10
2018-01-13T03:45:26.226Z,102198.97
2018-01-13T03:47:53.631Z,102201.06
2018-01-13T03:50:21.053Z,102197.23
2018-01-13T03:52:48.450Z,102198.07
2018-01-13T03:55:15.854Z,102202.05
2018-01-13T03:57:43.246Z,102203.31
2018-01-13T04:00:10.650Z,102202.48
2018-01-13T04:02:38.055Z,102195.98
2018-01-13T04:05:05.479Z,102200.31
2018-01-13T04:07:32.883Z,102195.58
2018-01-13T04:10:00.398Z,102192.13
2018-01-13T04:12:27.814Z,102192.11
2018-01-13T04:14:55.212Z,102188.54
2018-01-13T04:17:22.614Z,102185.45
2018-01-13T04:19:50.042Z,102182.47
2018-01-13T04:22:17.457Z,102178.55
2018-01-13T04:24:44.849Z,102179.00
2018-01-13T04:27:12.242Z,102183.38
2018-01-13T04:29:39.652Z,102174.98
2018-01-13T04:32:07.733Z,102180.55
2018-01-13T04:34:35.170Z,102182.41
2018-01-13T04:37:02.582Z,102180.25
2018-01-13T04:39:30.015Z,102174.16
2018-01-13T04:41:57.398Z,102183.79
2018-01-13T04:44:24.889Z,102178.89
2018-01-13T04:46:52.310Z,102182.77
2018-01-13T04:49:19.715Z,102180.52
2018-01-13T04:51:47.152Z,102179.24
2018-01-13T04:54:14.541Z,102183.72
2018-01-13T04:56:41.941Z,102183.22
2018-01-13T04:59:09.343Z,102179.84
2018-01-13T05:01:36.757Z,102179.34
2018-01-13T05:04:04.163Z,102183.22
2018-01-13T05:06:31.577Z,102181.93
2018-01-13T05:08:58.962Z,102183.66
2018-01-13T05:11:26.362Z,102184.58
2018-01-13T05:13:53.759Z,102184.64
2018-01-13T05:16:21.166Z,102182.36
2018-01-13T05:18:48.570Z,102182.50
2018-01-13T05:21:15.999Z,102183.83
2018-01-13T05:23:43.390Z,102179.06
2018-01-13T05:26:10.803Z,102188.62
2018-01-13T05:28:38.195Z,102185.95
2018-01-13T05:31:05.615Z,102178.59
2018-01-13T05:33:33.064Z,102177.69
2018-01-13T05:36:00.409Z,102180.34
2018-01-13T05:38:27.824Z,102172.02
2018-01-13T05:40:55.222Z,102172.84
2018-01-13T05:43:22.625Z,102178.15
2018-01-13T05:45:50.827Z,102172.45
2018-01-13T05:48:18.232Z,102165.94
2018-01-13T05:50:45.921Z,102174.20
2018-01-13T05:53:13.343Z,102169.40
2018-01-13T05:55:40.750Z,102164.20
2018-01-13T05:58:08.154Z,102172.49
2018-01-13T06:00:35.546Z,102167.20
2018-01-13T06:03:02.950Z,102170.22
2018-01-13T06:05:30.359Z,102164.19
2018-01-13T06:07:57.742Z,102171.58
2018-01-13T06:10:25.237Z,102167.22
2018-01-13T06:12:52.642Z,102166.77
2018-01-13T06:15:20.142Z,102169.44
2018-01-13T06:17:47.598Z,102175.11
2018-01-13T06:20:15.046Z,102170.78
2018-01-13T06:22:42.451Z,102172.09
2018-01-13T06:25:09.846Z,102163.75
2018-01-13T06:27:37.250Z,102166.46
2018-01-13T06:30:04.689Z,102165.55
2018-01-13T06:32:32.098Z,102170.26
2018-01-13T06:34:59.514Z,102160.61
2018-01-13T06:37:26.910Z,102164.95
2018-01-13T06:39:54.602Z,102165.08
2018-01-13T06:42:21.990Z,102161.19
2018-01-13T06:44:49.409Z,102161.62
2018-01-13T06:47:16.797Z,102148.55
2018-01-13T06:49:44.231Z,102159.44
2018-01-13T06:52:11.650Z,102155.64
2018-01-13T06:54:39.066Z,102160.01
2018-01-13T06:57:06.462Z,102159.98
2018-01-13T06:59:33.959Z,102166.12
2018-01-13T07:02:01.437Z,102166.59
2018-01-13T07:04:28.854Z,102170.02
2018-01-13T07:06:56.251Z,102166.51
2018-01-13T07:09:23.649Z,102186.03
2018-01-13T07:11:51.043Z,102179.09
2018-01-13T07:14:18.474Z,102189.09
2018-01-13T07:16:45.854Z,102185.16
2018-01-13T07:19:13.258Z,102193.88
2018-01-13T07:21:40.786Z,102198.61
2018-01-13T07:24:08.186Z,102198.58
2018-01-13T07:26:35.635Z,102196.89
2018-01-13T07:29:03.051Z,102195.15
2018-01-13T07:31:30.463Z,102193.38
2018-01-13T07:33:57.854Z,102198.61
2018-01-13T07:36:25.250Z,102195.05
2018-01-13T07:38:52.656Z,102194.57
2018-01-13T07:41:20.054Z,102194.18
2018-01-13T07:43:47.552Z,102203.85
2018-01-13T07:46:14.934Z,102203.83
2018-01-13T07:48:42.338Z,102205.17
2018-01-13T07:51:09.746Z,102202.57
2018-01-13T07:53:37.144Z,102203.47
2018-01-13T07:56:06.295Z,102210.01
2018-01-13T07:58:33.733Z,102209.18
2018-01-13T08:01:01.138Z,102214.36
2018-01-13T08:03:28.561Z,102211.78
2018-01-13T08:05:55.944Z,102207.81
2018-01-13T08:08:23.333Z,102212.15
2018-01-13T08:10:50.731Z,102208.27
2018-01-13T08:13:18.120Z,102209.50
2018-01-13T08:15:45.525Z,102210.39
2018-01-13T08:18:12.948Z,102205.59
2018-01-13T08:20:40.355Z,102203.05
2018-01-13T08:23:07.760Z,102207.77
2018-01-13T08:25:35.160Z,102204.73
2018-01-13T08:28:02.563Z,102207.42
2018-01-13T08:30:29.966Z,102208.66
2018-01-13T08:32:57.366Z,102202.61
2018-01-13T08:35:24.850Z,102203.44
2018-01-13T08:37:52.247Z,102209.02
2018-01-13T08:40:19.671Z,102205.54
2018-01-13T08:42:47.046Z,102201.20
2018-01-13T08:45:14.478Z,102209.94
2018-01-13T08:47:41.898Z,102206.84
2018-01-13T08:50:09.295Z,102206.44
2018-01-13T08:52:36.699Z,102213.42
2018-01-13T08:55:04.139Z,102215.61
2018-01-13T08:57:31.532Z,102223.03
2018-01-13T08:59:58.927Z,102218.28
2018-01-13T09:02:26.332Z,102221.27
2018-01-13T09:04:53.742Z,102221.28
2018-01-13T09:07:21.147Z,102228.27
2018-01-13T09:09:48.533Z,102219.58
2018-01-13T09:12:15.991Z,102226.98
2018-01-13T09:14:43.377Z,102227.84
2018-01-13T09:17:10.782Z,102226.05
2018-01-13T09:19:38.175Z,102232.20
2018-01-13T09:22:05.579Z,102224.42
2018-01-13T09:24:32.975Z,102232.63
2018-01-13T09:27:00.382Z,102223.52
2018-01-13T09:29:27.777Z,102229.17
2018-01-13T09:31:55.185Z,102233.06
2018-01-13T09:34:22.575Z,102231.28
2018-01-13T09:36:50.006Z,102220.46
2018-01-13T09:39:17.406Z,102228.34
2018-01-13T09:41:44.806Z,102236.59
2018-01-13T09:44:12.202Z,102233.58
2018-01-13T09:46:39.630Z,102224.88
2018-01-13T09:49:07.059Z,102224.48
2018-01-13T09:51:34.454Z,102225.77
2018-01-13T09:54:01.861Z,102233.15
2018-01-13T09:56:29.254Z,102226.60
2018-01-13T09:58:56.662Z,102233.97
2018-01-13T10:01:24.067Z,102230.95
2018-01-13T10:03:51.498Z,102235.73
2018-01-13T10:06:18.893Z,102233.58
2018-01-13T10:08:46.294Z,102233.17
2018-01-13T10:11:13.694Z,102235.34
2018-01-13T10:13:41.094Z,102236.17
2018-01-13T10:16:08.562Z,102237.55
2018-01-13T10:18:35.966Z,102232.73
2018-01-13T10:21:03.378Z,102235.34
2018-01-13T10:23:31.603Z,102238.80
2018-01-13T10:25:59.030Z,102236.63
2018-01-13T10:28:26.451Z,102237.53
2018-01-13T10:30:53.853Z,102242.77
2018-01-13T10:33:21.251Z,102237.97
2018-01-13T10:35:48.663Z,102243.21
2018-01-13T10:38:16.093Z,102235.79
2018-01-13T10:40:43.478Z,102236.23
2018-01-13T10:43:10.899Z,102230.05
2018-01-13T10:45:38.323Z,102228.70
2018-01-13T10:48:05.723Z,102228.23
2018-01-13T10:50:33.132Z,102230.48
2018-01-13T10:53:00.514Z,102239.62
2018-01-13T10:55:27.930Z,102237.02
2018-01-13T10:57:55.383Z,102227.38
2018-01-13T11:00:22.792Z,102236.56
2018-01-13T11:02:50.183Z,102236.16
2018-01-13T11:05:17.595Z,102234.38
2018-01-13T11:07:45.131Z,102233.83
2018-01-13T11:10:12.584Z,102229.50
2018-01-13T11:12:39.945Z,102226.48
2018-01-13T11:15:07.342Z,102230.39
2018-01-13T11:17:34.754Z,102225.70
2018-01-13T11:20:02.146Z,102223.94
2018-01-13T11:22:29.550Z,102226.14
2018-01-13T11:24:56.970Z,102230.06
2018-01-13T11:27:24.409Z,102226.17
2018-01-13T11:29:51.804Z,102228.34
2018-01-13T11:32:19.212Z,102223.58
2018-01-13T11:34:46.618Z,102224.03
2018-01-13T11:37:14.030Z,102227.95
2018-01-13T11:39:41.425Z,102228.30
2018-01-13T11:42:08.817Z,102230.89
2018-01-13T11:44:36.234Z,102232.58
2018-01-13T11:47:03.629Z,102223.94
2018-01-13T11:49:31.023Z,102217.02
2018-01-13T11:51:58.430Z,102224.45
2018-01-13T11:54:25.848Z,102220.07
2018-01-13T11:56:53.240Z,102220.89
2018-01-13T11:59:20.654Z,102223.51
2018-01-13T12:01:48.076Z,102225.79
2018-01-13T12:04:15.466Z,102217.11
2018-01-13T12:06:42.870Z,102217.93
2018-01-13T12:09:10.267Z,102217.05
2018-01-13T12:11:37.669Z,102213.98
2018-01-13T12:14:05.090Z,102210.94
2018-01-13T12:16:32.508Z,102212.66
2018-01-13T12:18:59.927Z,102210.95
2018-01-13T12:21:27.330Z,102209.14
2018-01-13T12:23:54.726Z,102206.22
2018-01-13T12:26:22.130Z,102207.05
2018-01-13T12:28:49.535Z,102198.80
2018-01-13T12:31:16.935Z,102206.23
2018-01-13T12:33:44.334Z,102204.02
2018-01-13T12:36:11.759Z,102194.49
2018-01-13T12:38:39.194Z,102198.92
2018-01-13T12:41:06.602Z,102201.95
2018-01-13T12:43:34.025Z,102189.72
2018-01-13T12:46:01.554Z,102189.27
2018-01-13T12:48:28.942Z,102188.77
2018-01-13T12:50:56.346Z,102187.84
2018-01-13T12:53:23.760Z,102184.49
2018-01-13T12:55:51.167Z,102190.59
2018-01-13T12:58:18.582Z,102186.70
2018-01-13T13:00:46.134Z,102189.75
2018-01-13T13:03:13.544Z,102188.44
2018-01-13T13:05:40.983Z,102183.60
2018-01-13T13:08:08.383Z,102185.39
2018-01-13T13:10:35.782Z,102179.27
2018-01-13T13:13:03.191Z,102181.90
2018-01-13T13:15:30.593Z,102175.36
2018-01-13T13:17:58.000Z,102173.20
2018-01-13T13:20:25.401Z,102171.10
2018-01-13T13:22:52.815Z,102174.20
2018-01-13T13:25:20.223Z,102167.72
2018-01-13T13:27:47.634Z,102166.77
2018-01-13T13:30:15.043Z,102164.14
2018-01-13T13:32:42.493Z,102167.98
2018-01-13T13:35:09.898Z,102158.88
2018-01-13T13:37:37.296Z,102162.80
2018-01-13T13:40:04.995Z,102158.87
2018-01-13T13:42:32.395Z,102150.70
2018-01-13T13:44:59.791Z,102145.10
2018-01-13T13:47:27.211Z,102155.50
2018-01-13T13:49:54.690Z,102153.74
2018-01-13T13:52:22.082Z,102151.94
2018-01-13T13:54:49.503Z,102149.33
2018-01-13T13:57:16.914Z,102148.02
2018-01-13T13:59:50.347Z,102143.27
2018-01-13T14:02:11.727Z,102151.56
2018-01-13T14:04:39.131Z,102148.52
2018-01-13T14:07:06.539Z,102148.50
2018-01-13T14:09:33.938Z,102153.25
2018-01-13T14:12:01.423Z,102151.98
2018-01-13T14:14:28.831Z,102143.29
2018-01-13T14:16:56.230Z,102148.02
2018-01-13T14:19:23.622Z,102150.17
2018-01-13T14:21:51.030Z,102149.37
2018-01-13T14:24:18.447Z,102150.69
2018-01-13T14:26:45.995Z,102152.84
2018-01-13T14:29:13.398Z,102150.27
2018-01-13T14:31:40.808Z,102146.72
2018-01-13T14:34:08.206Z,102149.30
2018-01-13T14:36:35.698Z,102149.83
2018-01-13T14:39:03.095Z,102143.34
2018-01-13T14:41:30.506Z,102137.27
2018-01-13T14:43:57.908Z,102146.39
2018-01-13T14:46:25.298Z,102142.91
2018-01-13T14:48:52.705Z,102143.33
2018-01-13T14:51:20.135Z,102138.57
2018-01-13T14:53:47.522Z,102143.34
2018-01-13T14:56:14.934Z,102139.03
2018-01-13T14:58:42.338Z,102146.38
2018-01-13T15:01:09.741Z,102144.64
2018-01-13T15:03:37.154Z,102147.22
2018-01-13T15:06:04.557Z,102147.24
2018-01-13T15:08:31.970Z,102152.43
2018-01-13T15:10:59.359Z,102150.67
2018-01-13T15:13:26.762Z,102148.95
2018-01-13T15:15:54.161Z,102146.39
2018-01-13T15:18:21.577Z,102149.41
2018-01-13T15:20:48.958Z,102150.27
2018-01-13T15:23:16.362Z,102149.47
2018-01-13T15:25:43.870Z,102152.95
2018-01-13T15:28:11.280Z,102157.30
2018-01-13T15:30:38.698Z,102142.98
2018-01-13T15:33:06.106Z,102148.60
2018-01-13T15:35:33.516Z,102145.58
2018-01-13T15:38:00.931Z,102153.89
2018-01-13T15:40:28.338Z,102156.06
2018-01-13T15:42:55.743Z,102154.73
2018-01-13T15:45:23.144Z,102159.50
2018-01-13T15:47:50.557Z,102163.02
2018-01-13T15:50:17.935Z,102161.27
2018-01-13T15:52:45.347Z,102161.27
2018-01-13T15:55:12.759Z,102156.48
2018-01-13T15:57:40.167Z,102150.84
2018-01-13T16:00:07.562Z,102149.56
2018-01-13T16:02:34.995Z,102153.45
2018-01-13T16:05:02.386Z,102148.64
2018-01-13T16:07:30.307Z,102149.95
2018-01-13T16:09:57.698Z,102150.84
2018-01-13T16:12:25.094Z,102147.38
2018-01-13T16:14:52.494Z,102145.61
2018-01-13T16:17:19.950Z,102142.13
2018-01-13T16:19:47.334Z,102144.75
2018-01-13T16:22:14.733Z,102138.66
2018-01-13T16:24:42.118Z,102140.81
2018-01-13T16:27:09.562Z,102136.89
2018-01-13T16:29:36.959Z,102146.44
2018-01-13T16:32:04.376Z,102151.25
2018-01-13T16:34:31.766Z,102150.85
2018-01-13T16:36:59.279Z,102143.89
2018-01-13T16:39:26.687Z,102144.34
2018-01-13T16:41:54.102Z,102144.31
2018-01-13T16:44:21.497Z,102144.73
2018-01-13T16:46:48.914Z,102146.08
2018-01-13T16:49:16.311Z,102143.45
2018-01-13T16:51:43.699Z,102147.78
2018-01-13T16:54:11.098Z,102144.75
2018-01-13T16:56:38.537Z,102155.20
2018-01-13T16:59:05.903Z,102150.88
2018-01-13T17:01:33.294Z,102151.77
2018-01-13T17:04:00.695Z,102144.83
2018-01-13T17:06:28.095Z,102140.03
2018-01-13T17:08:55.527Z,102147.41
2018-01-13T17:11:22.918Z,102146.99
2018-01-13T17:13:51.086Z,102147.84
2018-01-13T17:16:18.608Z,102146.12
2018-01-13T17:18:46.009Z,102149.58
2018-01-13T17:21:13.399Z,102144.81
2018-01-13T17:23:40.795Z,102138.72
2018-01-13T17:26:08.190Z,102137.00
2018-01-13T17:28:35.679Z,102137.88
2018-01-13T17:31:03.068Z,102137.86
2018-01-13T17:33:30.469Z,102142.21
2018-01-13T17:35:57.861Z,102142.66
2018-01-13T17:38:25.266Z,102130.06
2018-01-13T17:40:52.666Z,102134.41
2018-01-13T17:43:20.074Z,102145.70
2018-01-13T17:45:47.470Z,102133.97
2018-01-13T17:48:14.955Z,102126.60
2018-01-13T17:50:42.346Z,102132.66
2018-01-13T17:53:09.755Z,102127.91
2018-01-13T17:55:37.141Z,102139.19
2018-01-13T17:58:04.538Z,102130.92
2018-01-13T18:00:31.925Z,102123.56
2018-01-13T18:03:00.149Z,102124.85
2018-01-13T18:05:27.655Z,102122.25
2018-01-13T18:07:55.050Z,102128.34
2018-01-13T18:10:22.446Z,102125.73
2018-01-13T18:12:49.876Z,102130.50
2018-01-13T18:15:17.385Z,102121.83
2018-01-13T18:17:44.778Z,102121.38
2018-01-13T18:20:12.178Z,102116.19
2018-01-13T18:22:39.583Z,102112.27
2018-01-13T18:25:07.059Z,102110.97
2018-01-13T18:27:34.447Z,102123.56
2018-01-13T18:30:01.858Z,102131.37
2018-01-13T18:32:29.291Z,102128.77
2018-01-13T18:34:56.679Z,102127.03
2018-01-13T18:37:24.088Z,102127.02
2018-01-13T18:39:51.507Z,102122.68
2018-01-13T18:42:18.903Z,102127.89
2018-01-13T18:47:13.019Z,102119.22
2018-01-13T18:49:40.425Z,102116.16
2018-01-13T18:52:07.822Z,102117.47
2018-01-13T18:54:35.249Z,102123.55
2018-01-13T18:57:02.650Z,102122.66
2018-01-13T18:59:30.047Z,102126.58
2018-01-13T19:01:57.443Z,102130.91
2018-01-13T19:04:24.843Z,102133.09
2018-01-13T19:06:52.246Z,102130.48
2018-01-13T19:09:19.703Z,102129.16
2018-01-13T19:11:47.097Z,102126.56
2018-01-13T19:14:14.503Z,102129.18
2018-01-13T19:16:41.898Z,102127.86
2018-01-13T19:19:09.305Z,102127.88
2018-01-13T19:21:36.698Z,102138.28
2018-01-13T19:24:04.106Z,102130.48
2018-01-13T19:26:31.493Z,102137.44
2018-01-13T19:28:58.925Z,102126.59
2018-01-13T19:31:26.329Z,102132.22
2018-01-13T19:33:53.741Z,102135.22
2018-01-13T19:36:21.130Z,102131.35
2018-01-13T19:38:48.526Z,102140.88
2018-01-13T19:41:15.950Z,102136.97
2018-01-13T19:43:43.364Z,102137.41
2018-01-13T19:46:10.770Z,102142.63
2018-01-13T19:48:38.177Z,102138.69
2018-01-13T19:51:05.580Z,102139.56
2018-01-13T19:53:32.979Z,102143.91
2018-01-13T19:56:00.383Z,102142.59
2018-01-13T19:58:27.787Z,102146.97
2018-01-13T20:00:55.178Z,102150.86
2018-01-13T20:03:22.619Z,102145.66
2018-01-13T20:05:50.015Z,102145.67
2018-01-13T20:08:17.414Z,102139.16
2018-01-13T20:10:44.811Z,102134.38
2018-01-13T20:13:12.218Z,102144.36
2018-01-13T20:15:39.619Z,102136.97
2018-01-13T20:18:07.015Z,102136.97
2018-01-13T20:20:34.422Z,102143.04
2018-01-13T20:23:01.834Z,102140.45
2018-01-13T20:25:29.231Z,102136.12
2018-01-13T20:27:56.703Z,102131.78
2018-01-13T20:30:24.095Z,102127.45
2018-01-13T20:32:51.484Z,102123.11
2018-01-13T20:35:18.886Z,102127.85
2018-01-13T20:37:46.301Z,102126.56
2018-01-13T20:40:13.702Z,102130.91
2018-01-13T20:42:41.107Z,102124.42
2018-01-13T20:45:08.506Z,102129.17
2018-01-13T20:47:35.910Z,102127.89
2018-01-13T20:50:03.344Z,102128.73
2018-01-13T20:52:30.738Z,102122.66
2018-01-13T20:54:58.227Z,102130.02
2018-01-13T20:57:25.620Z,102135.25
2018-01-13T20:59:53.067Z,102128.30
2018-01-13T21:02:20.458Z,102133.51
2018-01-13T21:04:47.858Z,102133.94
2018-01-13T21:07:15.272Z,102130.05
2018-01-13T21:09:42.681Z,102123.11
2018-01-13T21:12:10.062Z,102122.69
2018-01-13T21:14:37.469Z,102123.94
2018-01-13T21:17:04.866Z,102122.19
2018-01-13T21:19:32.274Z,102112.22
2018-01-13T21:21:59.678Z,102110.02
2018-01-13T21:24:27.082Z,102106.12
2018-01-13T21:26:54.478Z,102107.43
2018-01-13T21:29:21.898Z,102110.02
2018-01-13T21:31:49.298Z,102108.72
2018-01-13T21:34:16.694Z,102097.47
2018-01-13T21:36:44.092Z,102092.69
2018-01-13T21:39:11.490Z,102094.87
2018-01-13T21:41:38.899Z,102094.44
2018-01-13T21:44:06.318Z,102092.71
2018-01-13T21:46:33.703Z,102100.92
2018-01-13T21:49:01.103Z,102096.60
2018-01-13T21:51:28.508Z,102088.38
2018-01-13T21:53:55.927Z,102091.81
2018-01-13T21:56:23.308Z,102093.12
2018-01-13T21:58:50.740Z,102090.52
2018-01-13T22:01:18.157Z,102098.78
2018-01-13T22:03:45.592Z,102098.34
2018-01-13T22:06:12.980Z,102095.27
2018-01-13T22:08:40.374Z,102088.35
2018-01-13T22:11:07.768Z,102092.30
2018-01-13T22:13:35.186Z,102087.09
2018-01-13T22:16:02.574Z,102097.05
2018-01-13T22:18:29.995Z,102089.27
2018-01-13T22:20:57.451Z,102086.25
2018-01-13T22:23:24.842Z,102091.41
2018-01-13T22:25:52.280Z,102086.23
2018-01-13T22:28:19.715Z,102090.98
2018-01-13T22:30:47.190Z,102087.94
2018-01-13T22:33:14.619Z,102081.00
2018-01-13T22:35:42.024Z,102084.48
2018-01-13T22:38:09.427Z,102077.11
2018-01-13T22:40:36.850Z,102075.81
2018-01-13T22:43:04.311Z,102082.77
2018-01-13T22:45:31.720Z,102074.53
2018-01-13T22:47:59.114Z,102071.48
2018-01-13T22:50:26.554Z,102074.09
2018-01-13T22:52:53.974Z,102084.05
2018-01-13T22:55:21.374Z,102077.55
2018-01-13T22:57:48.808Z,102074.95
2018-01-13T23:00:16.212Z,102071.94
2018-01-13T23:02:43.635Z,102077.58
2018-01-13T23:05:11.199Z,102069.77
2018-01-13T23:07:38.590Z,102075.39
2018-01-13T23:10:06.004Z,102074.53
2018-01-13T23:12:33.398Z,102072.36
2018-01-13T23:15:00.803Z,102065.41
2018-01-13T23:17:28.211Z,102055.45
2018-01-13T23:19:55.718Z,102056.77
2018-01-13T23:22:23.118Z,102058.48
2018-01-13T23:24:50.566Z,102054.14
2018-01-13T23:27:21.907Z,102044.62
2018-01-13T23:29:49.306Z,102054.14
2018-01-13T23:32:16.695Z,102052.83
2018-01-13T23:34:44.146Z,102040.27
2018-01-13T23:37:11.538Z,102041.56
2018-01-13T23:39:38.991Z,102037.66
2018-01-13T23:42:06.395Z,102043.75
2018-01-13T23:44:33.794Z,102040.27
2018-01-13T23:47:01.199Z,102034.63
2018-01-13T23:49:28.594Z,102032.48
2018-01-13T23:51:55.990Z,102032.91
2018-01-13T23:54:23.389Z,102028.55
2018-01-13T23:56:50.807Z,102025.09
2018-01-13T23:59:18.214Z,102029.44
